You are not logged in, Click here to log in
因斯布魯克機場INN / LOWI 奧地利西部最大的國際機場,位於蒂羅爾州,坐落在距離因斯布魯克市中心約2.5英里外的郊區
ICAO: LOWI Country: 奧地利西部最大的國際機場,位於蒂羅爾州,坐落在距離因斯布魯克市中心約2.5英里外的郊區
Latitude: 47.2602 Longitude: 11.344
Total Arrivals: 6 Total Departures: 3
Latest Arrival: FS01 (EDDC-LOWI)CHU. CHUHAO Latest Departure: OS902 (LOWI-LOWW)Arthur. Kung
Scenery:
METAR : LOWI 190450Z VRB02KT CAVOK M01/M04 Q1023 NOSIG

因斯布魯克機場INN

You are accessing this site from IP address 35.175.113.29. Virtual Airline. CMS by phpVMS.Website designed by Zumeweb and edited by Theo Bearman.
There is 0 User(s) Online: | and 2 Guest(s) Online.
All information on this site is for fight simulation purposes only. This site is for flight logging for pilots of Virtual Airline&模擬飛行論壇 FlySim only.